sensor_id;sensor_type;location;lat;lon;timestamp;P1;durP1;ratioP1;P2;durP2;ratioP2
33716;SDS011;20046;50.746;7.072;2022-09-09T00:01:51;3.10;;;1.13;;
33716;SDS011;20046;50.746;7.072;2022-09-09T00:10:06;2.58;;;1.27;;
33716;SDS011;20046;50.746;7.072;2022-09-09T00:15:42;7.10;;;1.10;;
33716;SDS011;20046;50.746;7.072;2022-09-09T00:19:02;7.95;;;1.70;;
33716;SDS011;20046;50.746;7.072;2022-09-09T00:21:34;5.90;;;0.85;;
33716;SDS011;20046;50.746;7.072;2022-09-09T00:24:08;8.77;;;1.20;;
33716;SDS011;20046;50.746;7.072;2022-09-09T00:26:45;2.72;;;1.20;;
33716;SDS011;20046;50.746;7.072;2022-09-09T00:29:25;6.30;;;1.40;;
33716;SDS011;20046;50.746;7.072;2022-09-09T00:32:04;5.93;;;2.22;;
33716;SDS011;20046;50.746;7.072;2022-09-09T00:34:39;7.25;;;1.88;;
33716;SDS011;20046;50.746;7.072;2022-09-09T00:37:17;6.82;;;1.40;;
33716;SDS011;20046;50.746;7.072;2022-09-09T00:39:45;4.47;;;1.10;;
33716;SDS011;20046;50.746;7.072;2022-09-09T00:42:24;7.32;;;1.85;;
33716;SDS011;20046;50.746;7.072;2022-09-09T00:44:52;8.27;;;1.83;;
33716;SDS011;20046;50.746;7.072;2022-09-09T00:55:20;7.22;;;1.70;;
33716;SDS011;20046;50.746;7.072;2022-09-09T00:58:01;5.53;;;1.50;;
33716;SDS011;20046;50.746;7.072;2022-09-09T01:00:27;6.35;;;1.50;;
33716;SDS011;20046;50.746;7.072;2022-09-09T01:05:27;7.72;;;1.40;;
33716;SDS011;20046;50.746;7.072;2022-09-09T01:07:59;3.65;;;1.40;;
33716;SDS011;20046;50.746;7.072;2022-09-09T01:10:36;7.50;;;1.35;;
33716;SDS011;20046;50.746;7.072;2022-09-09T01:13:30;4.63;;;1.23;;
33716;SDS011;20046;50.746;7.072;2022-09-09T01:15:59;4.18;;;1.40;;
33716;SDS011;20046;50.746;7.072;2022-09-09T01:18:34;7.65;;;1.63;;
33716;SDS011;20046;50.746;7.072;2022-09-09T01:24:12;4.35;;;1.92;;
33716;SDS011;20046;50.746;7.072;2022-09-09T01:27:16;8.75;;;1.52;;
33716;SDS011;20046;50.746;7.072;2022-09-09T01:29:43;6.65;;;1.52;;
33716;SDS011;20046;50.746;7.072;2022-09-09T01:35:04;6.78;;;1.60;;
33716;SDS011;20046;50.746;7.072;2022-09-09T01:37:33;3.70;;;1.60;;
33716;SDS011;20046;50.746;7.072;2022-09-09T01:39:59;7.70;;;1.75;;
33716;SDS011;20046;50.746;7.072;2022-09-09T01:42:24;7.93;;;1.83;;
33716;SDS011;20046;50.746;7.072;2022-09-09T01:44:50;5.82;;;1.30;;
33716;SDS011;20046;50.746;7.072;2022-09-09T01:47:15;7.60;;;1.95;;
33716;SDS011;20046;50.746;7.072;2022-09-09T01:49:42;5.53;;;1.45;;
33716;SDS011;20046;50.746;7.072;2022-09-09T01:52:08;5.20;;;1.65;;
33716;SDS011;20046;50.746;7.072;2022-09-09T01:54:34;3.90;;;1.17;;
33716;SDS011;20046;50.746;7.072;2022-09-09T01:57:18;5.80;;;1.73;;
33716;SDS011;20046;50.746;7.072;2022-09-09T01:59:58;5.10;;;1.20;;
33716;SDS011;20046;50.746;7.072;2022-09-09T02:04:54;5.63;;;1.23;;
33716;SDS011;20046;50.746;7.072;2022-09-09T02:07:32;7.90;;;2.10;;
33716;SDS011;20046;50.746;7.072;2022-09-09T02:10:15;4.55;;;1.10;;
33716;SDS011;20046;50.746;7.072;2022-09-09T02:12:51;5.35;;;1.80;;
33716;SDS011;20046;50.746;7.072;2022-09-09T02:18:04;9.52;;;1.30;;
33716;SDS011;20046;50.746;7.072;2022-09-09T02:20:33;6.70;;;1.88;;
33716;SDS011;20046;50.746;7.072;2022-09-09T02:23:01;9.73;;;1.55;;
33716;SDS011;20046;50.746;7.072;2022-09-09T02:25:29;4.90;;;1.98;;
33716;SDS011;20046;50.746;7.072;2022-09-09T02:27:54;6.90;;;1.67;;
33716;SDS011;20046;50.746;7.072;2022-09-09T02:30:23;6.38;;;2.03;;
33716;SDS011;20046;50.746;7.072;2022-09-09T02:32:49;14.70;;;1.60;;
33716;SDS011;20046;50.746;7.072;2022-09-09T02:35:19;10.38;;;1.45;;
33716;SDS011;20046;50.746;7.072;2022-09-09T02:37:49;5.72;;;1.17;;
33716;SDS011;20046;50.746;7.072;2022-09-09T02:40:17;7.80;;;1.75;;
33716;SDS011;20046;50.746;7.072;2022-09-09T02:42:44;8.30;;;1.50;;
33716;SDS011;20046;50.746;7.072;2022-09-09T02:45:12;11.35;;;1.42;;
33716;SDS011;20046;50.746;7.072;2022-09-09T02:47:44;9.50;;;1.65;;
33716;SDS011;20046;50.746;7.072;2022-09-09T02:50:36;10.23;;;1.63;;
33716;SDS011;20046;50.746;7.072;2022-09-09T02:53:23;5.13;;;1.55;;
33716;SDS011;20046;50.746;7.072;2022-09-09T02:56:03;8.82;;;1.48;;
33716;SDS011;20046;50.746;7.072;2022-09-09T02:58:34;4.85;;;1.30;;
33716;SDS011;20046;50.746;7.072;2022-09-09T03:01:01;4.55;;;1.67;;
33716;SDS011;20046;50.746;7.072;2022-09-09T03:03:27;6.97;;;1.58;;
33716;SDS011;20046;50.746;7.072;2022-09-09T03:05:54;6.10;;;1.58;;
33716;SDS011;20046;50.746;7.072;2022-09-09T03:08:19;7.45;;;1.88;;
33716;SDS011;20046;50.746;7.072;2022-09-09T03:10:45;5.93;;;1.30;;
33716;SDS011;20046;50.746;7.072;2022-09-09T03:13:11;11.27;;;1.60;;
33716;SDS011;20046;50.746;7.072;2022-09-09T03:15:38;8.38;;;2.28;;
33716;SDS011;20046;50.746;7.072;2022-09-09T03:18:03;5.88;;;1.85;;
33716;SDS011;20046;50.746;7.072;2022-09-09T03:20:29;8.20;;;1.63;;
33716;SDS011;20046;50.746;7.072;2022-09-09T03:22:56;5.45;;;1.67;;
33716;SDS011;20046;50.746;7.072;2022-09-09T03:25:22;9.48;;;2.20;;
33716;SDS011;20046;50.746;7.072;2022-09-09T03:27:49;5.90;;;1.40;;
33716;SDS011;20046;50.746;7.072;2022-09-09T03:30:18;7.43;;;1.98;;
33716;SDS011;20046;50.746;7.072;2022-09-09T03:32:43;6.97;;;1.60;;
33716;SDS011;20046;50.746;7.072;2022-09-09T03:35:09;6.28;;;1.70;;
33716;SDS011;20046;50.746;7.072;2022-09-09T03:37:35;8.98;;;1.75;;
33716;SDS011;20046;50.746;7.072;2022-09-09T03:40:00;6.45;;;1.30;;
33716;SDS011;20046;50.746;7.072;2022-09-09T03:42:26;10.75;;;1.70;;
33716;SDS011;20046;50.746;7.072;2022-09-09T03:44:52;5.55;;;1.60;;
33716;SDS011;20046;50.746;7.072;2022-09-09T03:47:18;6.10;;;1.60;;
33716;SDS011;20046;50.746;7.072;2022-09-09T03:49:46;5.95;;;1.08;;
33716;SDS011;20046;50.746;7.072;2022-09-09T03:52:13;10.20;;;2.72;;
33716;SDS011;20046;50.746;7.072;2022-09-09T03:54:39;9.00;;;1.80;;
33716;SDS011;20046;50.746;7.072;2022-09-09T03:57:07;6.32;;;1.77;;
33716;SDS011;20046;50.746;7.072;2022-09-09T03:59:34;6.10;;;1.65;;
33716;SDS011;20046;50.746;7.072;2022-09-09T04:02:00;6.05;;;1.30;;
33716;SDS011;20046;50.746;7.072;2022-09-09T04:04:27;6.68;;;1.58;;
33716;SDS011;20046;50.746;7.072;2022-09-09T04:06:53;6.82;;;1.52;;
33716;SDS011;20046;50.746;7.072;2022-09-09T04:09:19;5.88;;;1.60;;
33716;SDS011;20046;50.746;7.072;2022-09-09T04:11:44;3.47;;;1.70;;
33716;SDS011;20046;50.746;7.072;2022-09-09T04:14:11;4.28;;;1.70;;
33716;SDS011;20046;50.746;7.072;2022-09-09T04:16:37;9.93;;;1.90;;
33716;SDS011;20046;50.746;7.072;2022-09-09T04:19:04;3.97;;;1.45;;
33716;SDS011;20046;50.746;7.072;2022-09-09T04:21:31;10.77;;;2.13;;
33716;SDS011;20046;50.746;7.072;2022-09-09T04:23:57;8.02;;;1.90;;
33716;SDS011;20046;50.746;7.072;2022-09-09T04:26:23;7.93;;;1.73;;
33716;SDS011;20046;50.746;7.072;2022-09-09T04:28:49;6.30;;;1.70;;
33716;SDS011;20046;50.746;7.072;2022-09-09T04:31:19;5.75;;;1.38;;
33716;SDS011;20046;50.746;7.072;2022-09-09T04:33:47;7.30;;;2.28;;
33716;SDS011;20046;50.746;7.072;2022-09-09T04:36:14;8.77;;;1.90;;
33716;SDS011;20046;50.746;7.072;2022-09-09T04:38:40;6.65;;;1.67;;
33716;SDS011;20046;50.746;7.072;2022-09-09T04:41:06;5.65;;;1.50;;
33716;SDS011;20046;50.746;7.072;2022-09-09T04:43:32;6.75;;;1.75;;
33716;SDS011;20046;50.746;7.072;2022-09-09T04:45:59;8.93;;;2.10;;
33716;SDS011;20046;50.746;7.072;2022-09-09T04:48:25;6.60;;;1.60;;
33716;SDS011;20046;50.746;7.072;2022-09-09T04:50:57;7.90;;;1.88;;
33716;SDS011;20046;50.746;7.072;2022-09-09T04:53:25;5.65;;;1.55;;
33716;SDS011;20046;50.746;7.072;2022-09-09T04:56:04;12.98;;;2.08;;
33716;SDS011;20046;50.746;7.072;2022-09-09T04:58:31;5.85;;;1.67;;
33716;SDS011;20046;50.746;7.072;2022-09-09T05:01:30;5.72;;;1.50;;
33716;SDS011;20046;50.746;7.072;2022-09-09T05:03:49;8.52;;;1.95;;
33716;SDS011;20046;50.746;7.072;2022-09-09T05:06:17;5.97;;;1.77;;
33716;SDS011;20046;50.746;7.072;2022-09-09T05:08:44;7.93;;;1.85;;
33716;SDS011;20046;50.746;7.072;2022-09-09T05:11:17;10.75;;;1.95;;
33716;SDS011;20046;50.746;7.072;2022-09-09T05:13:48;7.53;;;1.63;;
33716;SDS011;20046;50.746;7.072;2022-09-09T05:16:15;5.63;;;1.42;;
33716;SDS011;20046;50.746;7.072;2022-09-09T05:18:42;3.47;;;1.23;;
33716;SDS011;20046;50.746;7.072;2022-09-09T05:21:08;7.22;;;1.48;;
33716;SDS011;20046;50.746;7.072;2022-09-09T05:23:35;6.13;;;1.70;;
33716;SDS011;20046;50.746;7.072;2022-09-09T05:26:01;7.60;;;1.55;;
33716;SDS011;20046;50.746;7.072;2022-09-09T05:28:28;7.13;;;1.75;;
33716;SDS011;20046;50.746;7.072;2022-09-09T05:31:05;10.00;;;1.80;;
33716;SDS011;20046;50.746;7.072;2022-09-09T05:33:36;6.13;;;1.55;;
33716;SDS011;20046;50.746;7.072;2022-09-09T05:36:06;12.30;;;1.75;;
33716;SDS011;20046;50.746;7.072;2022-09-09T05:38:33;6.38;;;1.95;;
33716;SDS011;20046;50.746;7.072;2022-09-09T05:40:59;7.07;;;1.45;;
33716;SDS011;20046;50.746;7.072;2022-09-09T05:43:27;8.35;;;2.03;;
33716;SDS011;20046;50.746;7.072;2022-09-09T05:46:03;7.03;;;1.48;;
33716;SDS011;20046;50.746;7.072;2022-09-09T05:48:34;7.47;;;1.85;;
33716;SDS011;20046;50.746;7.072;2022-09-09T05:51:10;11.52;;;1.90;;
33716;SDS011;20046;50.746;7.072;2022-09-09T05:53:37;10.65;;;1.98;;
33716;SDS011;20046;50.746;7.072;2022-09-09T05:58:33;8.23;;;1.73;;
33716;SDS011;20046;50.746;7.072;2022-09-09T06:01:00;8.95;;;1.50;;
33716;SDS011;20046;50.746;7.072;2022-09-09T06:03:27;9.35;;;1.80;;
33716;SDS011;20046;50.746;7.072;2022-09-09T06:05:59;8.98;;;1.67;;
33716;SDS011;20046;50.746;7.072;2022-09-09T06:08:26;7.20;;;1.58;;
33716;SDS011;20046;50.746;7.072;2022-09-09T06:10:52;6.78;;;1.63;;
33716;SDS011;20046;50.746;7.072;2022-09-09T06:13:18;8.73;;;1.40;;
33716;SDS011;20046;50.746;7.072;2022-09-09T06:15:52;5.43;;;1.75;;
33716;SDS011;20046;50.746;7.072;2022-09-09T06:18:18;6.20;;;2.25;;
33716;SDS011;20046;50.746;7.072;2022-09-09T06:20:54;10.05;;;1.95;;
33716;SDS011;20046;50.746;7.072;2022-09-09T06:23:19;9.30;;;2.28;;
33716;SDS011;20046;50.746;7.072;2022-09-09T06:25:45;14.60;;;2.90;;
33716;SDS011;20046;50.746;7.072;2022-09-09T06:28:11;10.77;;;2.30;;
33716;SDS011;20046;50.746;7.072;2022-09-09T06:30:36;7.35;;;2.25;;
33716;SDS011;20046;50.746;7.072;2022-09-09T06:33:03;7.57;;;1.73;;
33716;SDS011;20046;50.746;7.072;2022-09-09T06:35:29;8.00;;;2.00;;
33716;SDS011;20046;50.746;7.072;2022-09-09T06:37:55;5.72;;;1.67;;
33716;SDS011;20046;50.746;7.072;2022-09-09T06:40:21;8.02;;;2.17;;
33716;SDS011;20046;50.746;7.072;2022-09-09T06:42:46;8.05;;;2.53;;
33716;SDS011;20046;50.746;7.072;2022-09-09T06:45:13;9.57;;;2.28;;
33716;SDS011;20046;50.746;7.072;2022-09-09T06:47:38;9.90;;;2.40;;
33716;SDS011;20046;50.746;7.072;2022-09-09T06:50:04;12.35;;;2.65;;
33716;SDS011;20046;50.746;7.072;2022-09-09T06:52:32;9.07;;;2.20;;
33716;SDS011;20046;50.746;7.072;2022-09-09T06:54:58;5.60;;;2.25;;
33716;SDS011;20046;50.746;7.072;2022-09-09T06:57:24;7.95;;;2.00;;
33716;SDS011;20046;50.746;7.072;2022-09-09T06:59:49;15.73;;;2.20;;
33716;SDS011;20046;50.746;7.072;2022-09-09T07:02:15;7.88;;;1.95;;
33716;SDS011;20046;50.746;7.072;2022-09-09T07:04:41;7.88;;;2.28;;
33716;SDS011;20046;50.746;7.072;2022-09-09T07:07:06;9.60;;;1.92;;
33716;SDS011;20046;50.746;7.072;2022-09-09T07:09:34;7.90;;;2.20;;
33716;SDS011;20046;50.746;7.072;2022-09-09T07:12:00;7.43;;;1.60;;
33716;SDS011;20046;50.746;7.072;2022-09-09T07:14:26;10.65;;;1.90;;
33716;SDS011;20046;50.746;7.072;2022-09-09T07:16:52;6.88;;;1.67;;
33716;SDS011;20046;50.746;7.072;2022-09-09T07:19:18;6.70;;;1.58;;
33716;SDS011;20046;50.746;7.072;2022-09-09T07:21:43;7.60;;;1.58;;
33716;SDS011;20046;50.746;7.072;2022-09-09T07:24:09;10.13;;;1.63;;
33716;SDS011;20046;50.746;7.072;2022-09-09T07:26:35;5.65;;;1.73;;
33716;SDS011;20046;50.746;7.072;2022-09-09T07:29:02;9.90;;;1.50;;
33716;SDS011;20046;50.746;7.072;2022-09-09T07:31:29;4.57;;;1.42;;
33716;SDS011;20046;50.746;7.072;2022-09-09T07:33:57;11.68;;;2.33;;
33716;SDS011;20046;50.746;7.072;2022-09-09T07:36:24;13.95;;;2.10;;
33716;SDS011;20046;50.746;7.072;2022-09-09T07:38:55;9.38;;;1.88;;
33716;SDS011;20046;50.746;7.072;2022-09-09T07:41:31;4.72;;;1.40;;
33716;SDS011;20046;50.746;7.072;2022-09-09T07:43:59;6.80;;;1.60;;
33716;SDS011;20046;50.746;7.072;2022-09-09T07:46:28;8.70;;;1.73;;
33716;SDS011;20046;50.746;7.072;2022-09-09T07:48:55;8.73;;;1.80;;
33716;SDS011;20046;50.746;7.072;2022-09-09T07:51:25;12.30;;;1.77;;
33716;SDS011;20046;50.746;7.072;2022-09-09T07:54:00;7.40;;;1.33;;
33716;SDS011;20046;50.746;7.072;2022-09-09T07:56:29;7.60;;;1.75;;
33716;SDS011;20046;50.746;7.072;2022-09-09T07:58:56;12.50;;;2.13;;
33716;SDS011;20046;50.746;7.072;2022-09-09T08:01:30;7.40;;;1.75;;
33716;SDS011;20046;50.746;7.072;2022-09-09T08:06:45;15.13;;;1.65;;
33716;SDS011;20046;50.746;7.072;2022-09-09T08:09:13;7.13;;;1.65;;
33716;SDS011;20046;50.746;7.072;2022-09-09T08:11:40;10.95;;;1.75;;
33716;SDS011;20046;50.746;7.072;2022-09-09T08:14:07;7.93;;;2.33;;
33716;SDS011;20046;50.746;7.072;2022-09-09T08:16:35;5.97;;;1.42;;
33716;SDS011;20046;50.746;7.072;2022-09-09T08:19:03;10.77;;;2.15;;
33716;SDS011;20046;50.746;7.072;2022-09-09T08:21:30;10.00;;;3.00;;
33716;SDS011;20046;50.746;7.072;2022-09-09T08:23:58;7.47;;;1.23;;
33716;SDS011;20046;50.746;7.072;2022-09-09T08:26:29;6.57;;;1.50;;
33716;SDS011;20046;50.746;7.072;2022-09-09T08:29:00;7.03;;;1.63;;
33716;SDS011;20046;50.746;7.072;2022-09-09T08:31:27;6.78;;;1.45;;
33716;SDS011;20046;50.746;7.072;2022-09-09T08:33:55;10.75;;;1.55;;
33716;SDS011;20046;50.746;7.072;2022-09-09T08:36:23;6.25;;;1.23;;
33716;SDS011;20046;50.746;7.072;2022-09-09T08:38:51;7.70;;;3.03;;
33716;SDS011;20046;50.746;7.072;2022-09-09T08:44:10;6.78;;;1.35;;
33716;SDS011;20046;50.746;7.072;2022-09-09T08:52:16;8.77;;;2.13;;
33716;SDS011;20046;50.746;7.072;2022-09-09T08:54:56;9.85;;;1.60;;
33716;SDS011;20046;50.746;7.072;2022-09-09T08:57:40;8.10;;;1.23;;
33716;SDS011;20046;50.746;7.072;2022-09-09T09:00:08;4.55;;;1.50;;
33716;SDS011;20046;50.746;7.072;2022-09-09T09:13:20;3.30;;;1.20;;
33716;SDS011;20046;50.746;7.072;2022-09-09T09:16:03;6.13;;;1.23;;
33716;SDS011;20046;50.746;7.072;2022-09-09T09:18:39;4.55;;;1.00;;
33716;SDS011;20046;50.746;7.072;2022-09-09T09:21:07;7.85;;;1.27;;
33716;SDS011;20046;50.746;7.072;2022-09-09T09:23:59;3.25;;;0.93;;
33716;SDS011;20046;50.746;7.072;2022-09-09T09:26:27;3.25;;;1.10;;
33716;SDS011;20046;50.746;7.072;2022-09-09T09:29:01;3.67;;;1.27;;
33716;SDS011;20046;50.746;7.072;2022-09-09T09:31:37;3.92;;;0.98;;
33716;SDS011;20046;50.746;7.072;2022-09-09T09:34:03;5.47;;;1.08;;
33716;SDS011;20046;50.746;7.072;2022-09-09T09:36:37;6.38;;;1.55;;
33716;SDS011;20046;50.746;7.072;2022-09-09T09:39:06;6.88;;;1.40;;
33716;SDS011;20046;50.746;7.072;2022-09-09T09:41:32;5.25;;;1.50;;
33716;SDS011;20046;50.746;7.072;2022-09-09T09:44:00;5.43;;;1.20;;
33716;SDS011;20046;50.746;7.072;2022-09-09T09:46:27;6.35;;;1.50;;
33716;SDS011;20046;50.746;7.072;2022-09-09T09:49:03;6.70;;;1.33;;
33716;SDS011;20046;50.746;7.072;2022-09-09T09:51:31;6.00;;;1.00;;
33716;SDS011;20046;50.746;7.072;2022-09-09T09:54:09;5.15;;;1.27;;
33716;SDS011;20046;50.746;7.072;2022-09-09T09:56:40;4.75;;;1.00;;
33716;SDS011;20046;50.746;7.072;2022-09-09T09:59:19;5.30;;;0.95;;
33716;SDS011;20046;50.746;7.072;2022-09-09T10:01:46;6.22;;;1.40;;
33716;SDS011;20046;50.746;7.072;2022-09-09T10:04:16;3.08;;;1.00;;
33716;SDS011;20046;50.746;7.072;2022-09-09T10:06:45;6.88;;;1.30;;
33716;SDS011;20046;50.746;7.072;2022-09-09T10:09:28;6.43;;;1.38;;
33716;SDS011;20046;50.746;7.072;2022-09-09T10:12:11;5.68;;;1.08;;
33716;SDS011;20046;50.746;7.072;2022-09-09T10:17:59;5.18;;;1.10;;
33716;SDS011;20046;50.746;7.072;2022-09-09T10:26:42;5.35;;;1.00;;
33716;SDS011;20046;50.746;7.072;2022-09-09T10:31:56;6.00;;;1.30;;
33716;SDS011;20046;50.746;7.072;2022-09-09T10:37:33;6.65;;;1.90;;
33716;SDS011;20046;50.746;7.072;2022-09-09T10:43:07;4.97;;;1.30;;
33716;SDS011;20046;50.746;7.072;2022-09-09T10:53:35;7.82;;;1.20;;
33716;SDS011;20046;50.746;7.072;2022-09-09T10:56:22;4.85;;;1.00;;
33716;SDS011;20046;50.746;7.072;2022-09-09T10:58:56;9.52;;;1.50;;
33716;SDS011;20046;50.746;7.072;2022-09-09T11:06:41;4.60;;;1.10;;
33716;SDS011;20046;50.746;7.072;2022-09-09T11:09:14;6.13;;;1.20;;
33716;SDS011;20046;50.746;7.072;2022-09-09T11:12:04;3.15;;;0.90;;
33716;SDS011;20046;50.746;7.072;2022-09-09T11:14:36;7.60;;;1.35;;
33716;SDS011;20046;50.746;7.072;2022-09-09T11:17:14;9.57;;;1.25;;
33716;SDS011;20046;50.746;7.072;2022-09-09T11:24:59;4.75;;;1.10;;
33716;SDS011;20046;50.746;7.072;2022-09-09T11:27:28;5.43;;;1.02;;
33716;SDS011;20046;50.746;7.072;2022-09-09T11:41:17;10.95;;;3.05;;
33716;SDS011;20046;50.746;7.072;2022-09-09T11:46:39;4.72;;;1.10;;
33716;SDS011;20046;50.746;7.072;2022-09-09T11:49:06;6.95;;;1.20;;
33716;SDS011;20046;50.746;7.072;2022-09-09T11:51:49;6.18;;;1.17;;
33716;SDS011;20046;50.746;7.072;2022-09-09T11:54:26;2.90;;;0.80;;
33716;SDS011;20046;50.746;7.072;2022-09-09T11:56:55;4.55;;;1.02;;
33716;SDS011;20046;50.746;7.072;2022-09-09T11:59:22;4.50;;;1.00;;
33716;SDS011;20046;50.746;7.072;2022-09-09T12:02:35;5.93;;;1.33;;
33716;SDS011;20046;50.746;7.072;2022-09-09T12:05:05;3.85;;;1.17;;
33716;SDS011;20046;50.746;7.072;2022-09-09T12:10:19;7.47;;;1.02;;
33716;SDS011;20046;50.746;7.072;2022-09-09T12:12:54;3.17;;;1.00;;
33716;SDS011;20046;50.746;7.072;2022-09-09T12:15:24;5.15;;;1.48;;
33716;SDS011;20046;50.746;7.072;2022-09-09T12:17:54;5.22;;;0.93;;
33716;SDS011;20046;50.746;7.072;2022-09-09T12:25:58;5.68;;;1.00;;
33716;SDS011;20046;50.746;7.072;2022-09-09T12:31:56;5.07;;;0.90;;
33716;SDS011;20046;50.746;7.072;2022-09-09T12:34:49;4.97;;;1.20;;
33716;SDS011;20046;50.746;7.072;2022-09-09T12:42:50;3.38;;;0.75;;
33716;SDS011;20046;50.746;7.072;2022-09-09T12:45:20;4.80;;;0.88;;
33716;SDS011;20046;50.746;7.072;2022-09-09T12:50:24;5.10;;;1.40;;
33716;SDS011;20046;50.746;7.072;2022-09-09T12:53:02;6.47;;;1.10;;
33716;SDS011;20046;50.746;7.072;2022-09-09T12:55:32;3.25;;;1.00;;
33716;SDS011;20046;50.746;7.072;2022-09-09T12:58:03;4.93;;;0.80;;
33716;SDS011;20046;50.746;7.072;2022-09-09T13:00:31;6.57;;;1.30;;
33716;SDS011;20046;50.746;7.072;2022-09-09T13:02:59;3.03;;;0.82;;
33716;SDS011;20046;50.746;7.072;2022-09-09T13:05:42;6.22;;;1.15;;
33716;SDS011;20046;50.746;7.072;2022-09-09T13:08:11;5.43;;;1.10;;
33716;SDS011;20046;50.746;7.072;2022-09-09T13:13:20;3.72;;;0.93;;
33716;SDS011;20046;50.746;7.072;2022-09-09T13:15:58;7.03;;;0.90;;
33716;SDS011;20046;50.746;7.072;2022-09-09T13:18:28;4.78;;;1.15;;
33716;SDS011;20046;50.746;7.072;2022-09-09T13:20:58;5.40;;;1.10;;
33716;SDS011;20046;50.746;7.072;2022-09-09T13:23:34;6.65;;;1.00;;
33716;SDS011;20046;50.746;7.072;2022-09-09T13:26:53;5.72;;;1.48;;
33716;SDS011;20046;50.746;7.072;2022-09-09T13:28:52;6.30;;;1.27;;
33716;SDS011;20046;50.746;7.072;2022-09-09T13:31:20;2.10;;;0.77;;
33716;SDS011;20046;50.746;7.072;2022-09-09T13:33:46;3.80;;;1.00;;
33716;SDS011;20046;50.746;7.072;2022-09-09T13:36:12;4.15;;;0.77;;
33716;SDS011;20046;50.746;7.072;2022-09-09T13:41:21;3.63;;;0.80;;
33716;SDS011;20046;50.746;7.072;2022-09-09T13:43:48;2.63;;;0.80;;
33716;SDS011;20046;50.746;7.072;2022-09-09T13:46:48;2.78;;;0.82;;
33716;SDS011;20046;50.746;7.072;2022-09-09T13:51:45;2.58;;;0.70;;
33716;SDS011;20046;50.746;7.072;2022-09-09T13:54:13;3.92;;;0.98;;
33716;SDS011;20046;50.746;7.072;2022-09-09T13:56:40;5.85;;;1.02;;
33716;SDS011;20046;50.746;7.072;2022-09-09T13:59:14;2.42;;;0.50;;
33716;SDS011;20046;50.746;7.072;2022-09-09T14:01:41;1.85;;;0.55;;
33716;SDS011;20046;50.746;7.072;2022-09-09T14:04:08;1.73;;;0.60;;
33716;SDS011;20046;50.746;7.072;2022-09-09T14:06:35;1.05;;;0.60;;
33716;SDS011;20046;50.746;7.072;2022-09-09T14:09:03;3.35;;;1.02;;
33716;SDS011;20046;50.746;7.072;2022-09-09T14:11:30;3.80;;;0.77;;
33716;SDS011;20046;50.746;7.072;2022-09-09T14:13:55;2.13;;;0.77;;
33716;SDS011;20046;50.746;7.072;2022-09-09T14:16:21;1.25;;;0.77;;
33716;SDS011;20046;50.746;7.072;2022-09-09T14:18:47;2.70;;;0.60;;
33716;SDS011;20046;50.746;7.072;2022-09-09T14:21:13;1.25;;;0.50;;
33716;SDS011;20046;50.746;7.072;2022-09-09T14:23:40;0.98;;;0.50;;
33716;SDS011;20046;50.746;7.072;2022-09-09T14:26:06;4.00;;;0.82;;
33716;SDS011;20046;50.746;7.072;2022-09-09T14:28:32;5.38;;;1.08;;
33716;SDS011;20046;50.746;7.072;2022-09-09T14:31:04;2.70;;;0.45;;
33716;SDS011;20046;50.746;7.072;2022-09-09T14:33:30;3.80;;;0.55;;
33716;SDS011;20046;50.746;7.072;2022-09-09T14:35:57;2.47;;;0.88;;
33716;SDS011;20046;50.746;7.072;2022-09-09T14:38:24;3.35;;;0.73;;
33716;SDS011;20046;50.746;7.072;2022-09-09T14:40:49;2.78;;;0.95;;
33716;SDS011;20046;50.746;7.072;2022-09-09T14:43:15;5.57;;;0.55;;
33716;SDS011;20046;50.746;7.072;2022-09-09T14:45:40;5.00;;;1.02;;
33716;SDS011;20046;50.746;7.072;2022-09-09T14:48:06;3.50;;;0.68;;
33716;SDS011;20046;50.746;7.072;2022-09-09T14:50:31;2.95;;;0.77;;
33716;SDS011;20046;50.746;7.072;2022-09-09T14:52:59;1.13;;;0.77;;
33716;SDS011;20046;50.746;7.072;2022-09-09T14:55:25;3.42;;;0.80;;
33716;SDS011;20046;50.746;7.072;2022-09-09T14:57:53;1.77;;;0.52;;
33716;SDS011;20046;50.746;7.072;2022-09-09T15:00:19;1.80;;;0.50;;
33716;SDS011;20046;50.746;7.072;2022-09-09T15:02:44;1.63;;;0.57;;
33716;SDS011;20046;50.746;7.072;2022-09-09T15:05:10;2.30;;;0.90;;
33716;SDS011;20046;50.746;7.072;2022-09-09T15:07:36;2.38;;;0.70;;
33716;SDS011;20046;50.746;7.072;2022-09-09T15:10:03;0.85;;;0.50;;
33716;SDS011;20046;50.746;7.072;2022-09-09T15:12:29;1.55;;;0.70;;
33716;SDS011;20046;50.746;7.072;2022-09-09T15:14:55;3.80;;;0.80;;
33716;SDS011;20046;50.746;7.072;2022-09-09T15:17:20;1.75;;;0.50;;
33716;SDS011;20046;50.746;7.072;2022-09-09T15:19:46;1.40;;;0.60;;
33716;SDS011;20046;50.746;7.072;2022-09-09T15:22:12;1.88;;;0.80;;
33716;SDS011;20046;50.746;7.072;2022-09-09T15:24:38;2.58;;;1.10;;
33716;SDS011;20046;50.746;7.072;2022-09-09T15:27:03;2.33;;;0.75;;
33716;SDS011;20046;50.746;7.072;2022-09-09T15:29:29;2.35;;;0.60;;
33716;SDS011;20046;50.746;7.072;2022-09-09T15:31:55;2.63;;;0.77;;
33716;SDS011;20046;50.746;7.072;2022-09-09T15:34:20;1.42;;;0.57;;
33716;SDS011;20046;50.746;7.072;2022-09-09T15:36:46;2.33;;;1.08;;
33716;SDS011;20046;50.746;7.072;2022-09-09T15:39:13;4.22;;;0.90;;
33716;SDS011;20046;50.746;7.072;2022-09-09T15:41:44;3.22;;;0.80;;
33716;SDS011;20046;50.746;7.072;2022-09-09T15:44:11;6.88;;;0.88;;
33716;SDS011;20046;50.746;7.072;2022-09-09T15:51:47;7.78;;;1.25;;
33716;SDS011;20046;50.746;7.072;2022-09-09T15:54:16;3.83;;;1.20;;
33716;SDS011;20046;50.746;7.072;2022-09-09T15:56:45;4.43;;;1.02;;
33716;SDS011;20046;50.746;7.072;2022-09-09T15:59:13;3.88;;;0.90;;
33716;SDS011;20046;50.746;7.072;2022-09-09T16:01:39;5.85;;;1.05;;
33716;SDS011;20046;50.746;7.072;2022-09-09T16:04:05;3.40;;;1.25;;
33716;SDS011;20046;50.746;7.072;2022-09-09T16:06:31;3.47;;;1.42;;
33716;SDS011;20046;50.746;7.072;2022-09-09T16:08:58;4.50;;;1.50;;
33716;SDS011;20046;50.746;7.072;2022-09-09T16:11:27;3.60;;;1.48;;
33716;SDS011;20046;50.746;7.072;2022-09-09T16:13:57;4.72;;;1.60;;
33716;SDS011;20046;50.746;7.072;2022-09-09T16:16:24;10.55;;;1.70;;
33716;SDS011;20046;50.746;7.072;2022-09-09T16:18:53;2.20;;;0.90;;
33716;SDS011;20046;50.746;7.072;2022-09-09T16:21:25;2.72;;;1.02;;
33716;SDS011;20046;50.746;7.072;2022-09-09T16:23:51;7.47;;;1.17;;
33716;SDS011;20046;50.746;7.072;2022-09-09T16:26:21;3.95;;;1.10;;
33716;SDS011;20046;50.746;7.072;2022-09-09T16:28:47;2.80;;;1.08;;
33716;SDS011;20046;50.746;7.072;2022-09-09T16:31:18;2.15;;;1.15;;
33716;SDS011;20046;50.746;7.072;2022-09-09T16:33:45;5.60;;;2.28;;
33716;SDS011;20046;50.746;7.072;2022-09-09T16:36:13;5.00;;;1.45;;
33716;SDS011;20046;50.746;7.072;2022-09-09T16:38:40;4.95;;;1.55;;
33716;SDS011;20046;50.746;7.072;2022-09-09T16:41:06;6.38;;;1.40;;
33716;SDS011;20046;50.746;7.072;2022-09-09T16:43:34;4.10;;;1.17;;
33716;SDS011;20046;50.746;7.072;2022-09-09T16:46:01;4.57;;;1.00;;
33716;SDS011;20046;50.746;7.072;2022-09-09T16:48:34;2.58;;;1.10;;
33716;SDS011;20046;50.746;7.072;2022-09-09T16:51:04;4.57;;;1.05;;
33716;SDS011;20046;50.746;7.072;2022-09-09T16:53:31;2.90;;;1.17;;
33716;SDS011;20046;50.746;7.072;2022-09-09T16:55:58;4.13;;;1.40;;
33716;SDS011;20046;50.746;7.072;2022-09-09T16:58:29;8.60;;;1.83;;
33716;SDS011;20046;50.746;7.072;2022-09-09T17:00:58;7.38;;;2.00;;
33716;SDS011;20046;50.746;7.072;2022-09-09T17:03:24;5.72;;;1.67;;
33716;SDS011;20046;50.746;7.072;2022-09-09T17:05:50;5.47;;;1.55;;
33716;SDS011;20046;50.746;7.072;2022-09-09T17:08:15;4.75;;;2.13;;
33716;SDS011;20046;50.746;7.072;2022-09-09T17:10:41;5.55;;;1.58;;
33716;SDS011;20046;50.746;7.072;2022-09-09T17:13:07;3.58;;;1.33;;
33716;SDS011;20046;50.746;7.072;2022-09-09T17:15:33;4.93;;;1.73;;
33716;SDS011;20046;50.746;7.072;2022-09-09T17:18:03;8.40;;;1.80;;
33716;SDS011;20046;50.746;7.072;2022-09-09T17:20:29;6.63;;;2.33;;